createdAt,value
2018-11-03T00:01:34.937Z,91.10
2018-11-03T00:04:03.364Z,90.90
2018-11-03T00:06:31.522Z,91.20
2018-11-03T00:08:59.809Z,91.10
2018-11-03T00:11:28.078Z,91.20
2018-11-03T00:18:52.913Z,92.70
2018-11-03T00:23:49.036Z,92.50
2018-11-03T00:26:17.372Z,92.50
2018-11-03T00:33:42.660Z,91.30
2018-11-03T00:36:10.844Z,91.60
2018-11-03T00:38:39.578Z,91.40
2018-11-03T00:41:07.773Z,92.00
2018-11-03T00:43:36.149Z,91.70
2018-11-03T00:46:08.525Z,91.90
2018-11-03T00:48:36.769Z,92.20
2018-11-03T00:51:05.045Z,92.20
2018-11-03T00:56:01.130Z,92.60
2018-11-03T00:58:29.456Z,93.00
2018-11-03T01:00:58.712Z,93.10
2018-11-03T01:03:26.780Z,92.80
2018-11-03T01:05:55.078Z,92.60
2018-11-03T01:08:23.370Z,92.70
2018-11-03T01:10:51.591Z,92.20
2018-11-03T01:18:15.649Z,92.70
2018-11-03T01:23:11.812Z,92.70
2018-11-03T01:25:40.448Z,92.70
2018-11-03T01:28:09.617Z,92.70
2018-11-03T01:30:37.828Z,92.20
2018-11-03T01:33:06.105Z,91.80
2018-11-03T01:35:34.400Z,92.30
2018-11-03T01:38:06.785Z,92.50
2018-11-03T01:43:02.884Z,92.50
2018-11-03T01:48:02.747Z,92.00
2018-11-03T01:50:30.984Z,91.40
2018-11-03T01:52:59.299Z,92.10
2018-11-03T02:00:23.324Z,92.60
2018-11-03T02:02:51.534Z,92.80
2018-11-03T02:05:20.404Z,92.40
2018-11-03T02:07:49.483Z,92.70
2018-11-03T02:12:49.594Z,92.50
2018-11-03T02:15:17.870Z,92.50
2018-11-03T02:17:46.136Z,92.50
2018-11-03T02:20:14.429Z,92.10
2018-11-03T02:22:42.657Z,92.00
2018-11-03T02:25:11.018Z,92.30
2018-11-03T02:27:39.301Z,93.00
2018-11-03T02:30:08.552Z,92.70
2018-11-03T02:35:05.578Z,92.40
2018-11-03T02:37:33.969Z,92.20
2018-11-03T02:40:02.304Z,92.30
2018-11-03T02:44:58.422Z,92.00
2018-11-03T02:47:26.764Z,91.90
2018-11-03T02:49:56.179Z,91.60
2018-11-03T02:52:24.461Z,92.40
2018-11-03T02:54:52.752Z,92.50
2018-11-03T02:57:20.976Z,92.00
2018-11-03T02:59:49.292Z,91.90
2018-11-03T03:02:17.564Z,92.10
2018-11-03T03:07:14.912Z,93.00
2018-11-03T03:09:43.237Z,93.10
2018-11-03T03:14:39.314Z,92.80
2018-11-03T03:17:07.608Z,93.00
2018-11-03T03:19:35.872Z,93.10
2018-11-03T03:22:04.238Z,92.90
2018-11-03T03:24:32.444Z,92.60
2018-11-03T03:27:00.920Z,93.20
2018-11-03T03:29:29.034Z,93.40
2018-11-03T03:34:25.144Z,93.70
2018-11-03T03:36:53.424Z,93.80
2018-11-03T03:39:21.724Z,93.90
2018-11-03T03:41:49.959Z,93.40
2018-11-03T03:44:18.237Z,93.70
2018-11-03T03:46:46.575Z,94.00
2018-11-03T03:49:15.663Z,94.00
2018-11-03T03:54:11.728Z,94.10
2018-11-03T03:56:40.064Z,93.90
2018-11-03T04:01:36.204Z,93.40
2018-11-03T04:04:04.566Z,93.70
2018-11-03T04:06:32.784Z,94.40
2018-11-03T04:11:28.941Z,94.30
2018-11-03T04:16:25.094Z,93.40
2018-11-03T04:18:53.338Z,93.80
2018-11-03T04:23:58.894Z,94.30
2018-11-03T04:26:28.612Z,94.40
2018-11-03T04:28:57.116Z,94.30
2018-11-03T04:31:25.630Z,94.20
2018-11-03T04:33:54.045Z,94.30
2018-11-03T04:36:22.284Z,94.70
2018-11-03T04:38:50.732Z,94.90
2018-11-03T04:43:46.744Z,95.40
2018-11-03T04:46:15.000Z,95.80
2018-11-03T04:48:43.289Z,95.70
2018-11-03T04:51:11.538Z,95.80
2018-11-03T04:53:39.849Z,95.60
2018-11-03T04:56:08.555Z,95.90
2018-11-03T05:01:04.670Z,96.40
2018-11-03T05:03:36.686Z,96.50
2018-11-03T05:06:06.191Z,96.40
2018-11-03T05:13:32.097Z,96.00
2018-11-03T05:16:00.440Z,96.20
2018-11-03T05:18:28.742Z,96.30
2018-11-03T05:20:57.074Z,96.30
2018-11-03T05:23:25.288Z,95.90
2018-11-03T05:28:21.458Z,94.80
2018-11-03T05:30:49.709Z,94.80
2018-11-03T05:33:18.757Z,95.00
2018-11-03T05:35:47.105Z,95.10
2018-11-03T05:38:15.324Z,94.90
2018-11-03T05:40:43.614Z,94.80
2018-11-03T05:45:42.200Z,94.30
2018-11-03T05:48:10.471Z,93.00
2018-11-03T05:50:38.922Z,92.90
2018-11-03T05:53:07.038Z,91.90
2018-11-03T05:55:35.336Z,91.00
2018-11-03T05:58:03.616Z,91.00
2018-11-03T06:00:31.866Z,90.00
2018-11-03T06:03:00.225Z,89.20
2018-11-03T06:05:28.415Z,89.20
2018-11-03T06:07:56.881Z,88.80
2018-11-03T06:12:53.287Z,85.30
2018-11-03T06:15:21.547Z,83.90
2018-11-03T06:20:17.684Z,81.50
2018-11-03T06:22:46.847Z,80.70
2018-11-03T06:27:42.904Z,80.80
2018-11-03T06:30:11.572Z,81.00
2018-11-03T06:32:39.907Z,81.10
2018-11-03T06:35:09.262Z,80.60
2018-11-03T06:37:37.652Z,79.60
2018-11-03T06:40:06.780Z,78.80
2018-11-03T06:47:31.292Z,74.90
2018-11-03T06:49:59.393Z,73.30
2018-11-03T06:52:27.722Z,71.30
2018-11-03T06:54:56.036Z,71.30
2018-11-03T06:57:24.327Z,71.50
2018-11-03T06:59:52.569Z,70.40
2018-11-03T07:04:48.683Z,67.60
2018-11-03T07:07:17.005Z,67.40
2018-11-03T07:09:45.237Z,66.30
2018-11-03T07:12:13.697Z,64.20
2018-11-03T07:14:41.891Z,62.90
2018-11-03T07:19:37.929Z,61.70
2018-11-03T07:22:06.274Z,62.20
2018-11-03T07:24:34.472Z,62.20
2018-11-03T07:27:02.786Z,62.60
2018-11-03T07:29:31.079Z,63.30
2018-11-03T07:31:59.337Z,64.40
2018-11-03T07:36:56.675Z,63.00
2018-11-03T07:39:25.036Z,61.50
2018-11-03T07:41:53.255Z,60.00
2018-11-03T07:44:21.576Z,60.80
2018-11-03T07:46:49.803Z,60.20
2018-11-03T07:49:18.205Z,59.80
2018-11-03T07:56:43.808Z,58.00
2018-11-03T07:59:13.221Z,57.50
2018-11-03T08:01:41.512Z,56.00
2018-11-03T08:04:09.780Z,56.70
2018-11-03T08:09:07.981Z,54.40
2018-11-03T08:11:36.256Z,53.50
2018-11-03T08:14:04.596Z,53.00
2018-11-03T08:16:32.864Z,54.20
2018-11-03T08:21:28.922Z,55.50
2018-11-03T08:23:57.592Z,56.60
2018-11-03T08:28:55.006Z,53.40
2018-11-03T08:31:23.353Z,54.80
2018-11-03T08:36:19.543Z,51.70
2018-11-03T08:38:47.812Z,50.00
2018-11-03T08:41:16.001Z,49.50
2018-11-03T08:46:12.123Z,47.20
2018-11-03T08:53:37.880Z,45.50
2018-11-03T08:56:06.859Z,45.90
2018-11-03T08:58:35.648Z,45.70
2018-11-03T09:01:03.933Z,45.30
2018-11-03T09:08:27.815Z,47.00
2018-11-03T09:10:56.084Z,48.40
2018-11-03T09:13:24.357Z,47.20
2018-11-03T09:18:20.513Z,45.40
2018-11-03T09:20:48.773Z,44.90
2018-11-03T09:28:12.820Z,44.50
2018-11-03T09:35:36.898Z,42.50
2018-11-03T09:38:06.334Z,42.60
2018-11-03T09:40:34.659Z,43.40
2018-11-03T09:50:27.323Z,43.20
2018-11-03T09:52:55.532Z,41.80
2018-11-03T09:57:52.322Z,42.10
2018-11-03T10:00:21.182Z,42.40
2018-11-03T10:02:49.466Z,41.80
2018-11-03T10:05:17.843Z,41.60
2018-11-03T10:10:16.078Z,40.20
2018-11-03T10:20:10.510Z,38.80
2018-11-03T10:22:38.685Z,40.80
2018-11-03T10:25:10.059Z,39.90
2018-11-03T10:27:38.585Z,39.70
2018-11-03T10:32:36.021Z,40.60
2018-11-03T10:35:07.484Z,39.90
2018-11-03T10:40:04.431Z,39.70
2018-11-03T10:42:32.554Z,40.40
2018-11-03T10:45:01.824Z,39.60
2018-11-03T10:47:29.970Z,39.00
2018-11-03T10:49:59.042Z,39.30
2018-11-03T10:52:27.321Z,39.90
2018-11-03T10:54:55.537Z,40.00
2018-11-03T10:57:23.836Z,41.80
2018-11-03T11:02:26.800Z,41.70
2018-11-03T11:05:00.605Z,40.70
2018-11-03T11:07:34.465Z,40.70
2018-11-03T11:12:39.621Z,40.40
2018-11-03T11:20:06.242Z,40.80
2018-11-03T11:22:34.469Z,40.50
2018-11-03T11:25:03.132Z,41.40
2018-11-03T11:27:31.413Z,40.90
2018-11-03T11:29:59.679Z,40.60
2018-11-03T11:32:28.088Z,41.10
2018-11-03T11:34:56.312Z,41.70
2018-11-03T11:37:24.527Z,41.20
2018-11-03T11:42:21.874Z,36.00
2018-11-03T11:44:50.298Z,36.10
2018-11-03T11:47:19.550Z,35.40
2018-11-03T11:49:47.937Z,35.50
2018-11-03T11:52:17.198Z,34.00
2018-11-03T11:54:45.494Z,32.50
2018-11-03T11:57:14.167Z,32.50
2018-11-03T11:59:42.499Z,28.80
2018-11-03T12:02:10.879Z,28.30
2018-11-03T12:04:39.380Z,27.80
2018-11-03T12:07:07.937Z,27.10
2018-11-03T12:14:39.890Z,29.00
2018-11-03T12:17:10.009Z,28.50
2018-11-03T12:19:42.639Z,28.30
2018-11-03T12:22:12.951Z,27.90
2018-11-03T12:24:41.519Z,28.00
2018-11-03T12:27:10.044Z,27.70
2018-11-03T12:29:39.730Z,27.60
2018-11-03T12:32:09.425Z,27.00
2018-11-03T12:34:45.769Z,27.60
2018-11-03T12:37:23.522Z,28.40
2018-11-03T12:39:56.741Z,28.20
2018-11-03T12:42:25.525Z,29.00
2018-11-03T12:44:54.145Z,28.00
2018-11-03T12:47:22.751Z,28.70
2018-11-03T12:49:55.609Z,28.60
2018-11-03T12:52:24.234Z,28.90
2018-11-03T12:54:52.805Z,29.20
2018-11-03T12:57:21.264Z,29.50
2018-11-03T12:59:49.823Z,29.60
2018-11-03T13:02:18.204Z,30.00
2018-11-03T13:04:46.757Z,30.10
2018-11-03T13:07:15.368Z,30.80
2018-11-03T13:09:44.955Z,31.40
2018-11-03T13:12:13.375Z,31.60
2018-11-03T13:17:11.755Z,32.30
2018-11-03T13:22:09.950Z,33.10
2018-11-03T13:27:07.074Z,33.60
2018-11-03T13:29:36.489Z,34.00
2018-11-03T13:32:04.792Z,34.20
2018-11-03T13:34:32.973Z,35.00
2018-11-03T13:37:01.513Z,34.10
2018-11-03T13:39:29.881Z,34.40
2018-11-03T13:42:00.770Z,34.50
2018-11-03T13:44:28.852Z,34.90
2018-11-03T13:46:57.233Z,35.00
2018-11-03T13:49:25.397Z,35.40
2018-11-03T13:54:21.536Z,35.90
2018-11-03T13:56:49.879Z,36.40
2018-11-03T13:59:18.119Z,36.30
2018-11-03T14:01:46.372Z,36.70
2018-11-03T14:04:14.665Z,37.20
2018-11-03T14:06:42.938Z,37.60
2018-11-03T14:09:11.394Z,38.10
2018-11-03T14:11:39.473Z,38.40
2018-11-03T14:16:35.753Z,38.70
2018-11-03T14:19:04.076Z,39.30
2018-11-03T14:21:32.168Z,39.50
2018-11-03T14:24:00.711Z,39.70
2018-11-03T14:26:29.978Z,40.30
2018-11-03T14:28:58.466Z,40.40
2018-11-03T14:33:54.994Z,41.20
2018-11-03T14:38:51.837Z,41.90
2018-11-03T14:41:20.032Z,42.60
2018-11-03T14:43:48.342Z,42.90
2018-11-03T14:48:44.501Z,44.20
2018-11-03T14:51:12.704Z,44.60
2018-11-03T14:53:41.045Z,44.90
2018-11-03T14:56:09.262Z,45.40
2018-11-03T15:01:05.445Z,46.70
2018-11-03T15:03:33.697Z,47.30
2018-11-03T15:06:01.965Z,48.00
2018-11-03T15:08:33.999Z,48.10
2018-11-03T15:11:02.192Z,48.30
2018-11-03T15:13:30.515Z,48.70
2018-11-03T15:15:58.812Z,49.00
2018-11-03T15:20:54.903Z,49.70
2018-11-03T15:23:23.169Z,50.00
2018-11-03T15:25:51.452Z,50.70
2018-11-03T15:28:19.707Z,51.10
2018-11-03T15:30:47.990Z,51.50
2018-11-03T15:33:16.356Z,51.90
2018-11-03T15:35:44.536Z,51.90
2018-11-03T15:40:41.958Z,52.70
2018-11-03T15:43:10.180Z,53.00
2018-11-03T15:45:38.512Z,53.30
2018-11-03T15:48:07.602Z,53.80
2018-11-03T15:50:40.348Z,54.20
2018-11-03T15:53:08.612Z,54.60
2018-11-03T15:55:37.373Z,54.50
2018-11-03T16:00:33.433Z,55.00
2018-11-03T16:03:01.754Z,55.20
2018-11-03T16:05:30.024Z,55.10
2018-11-03T16:07:59.185Z,55.00
2018-11-03T16:10:27.381Z,55.10
2018-11-03T16:15:23.502Z,55.50
2018-11-03T16:17:51.844Z,55.50
2018-11-03T16:20:20.101Z,56.00
2018-11-03T16:22:48.388Z,56.20
2018-11-03T16:25:16.651Z,56.60
2018-11-03T16:27:44.877Z,56.40
2018-11-03T16:30:15.556Z,56.70
2018-11-03T16:32:44.382Z,56.60
2018-11-03T16:35:12.235Z,56.90
2018-11-03T16:37:40.848Z,56.50
2018-11-03T16:40:11.133Z,56.80
2018-11-03T16:42:39.756Z,57.40
2018-11-03T16:45:09.672Z,57.50
2018-11-03T16:47:38.066Z,57.50
2018-11-03T16:50:07.636Z,57.70
2018-11-03T16:52:35.929Z,58.20
2018-11-03T16:55:04.633Z,59.10
2018-11-03T16:57:32.868Z,59.90
2018-11-03T17:00:01.066Z,60.40
2018-11-03T17:02:29.366Z,61.00
2018-11-03T17:04:57.638Z,61.40
2018-11-03T17:07:25.906Z,62.00
2018-11-03T17:09:54.182Z,63.10
2018-11-03T17:12:22.506Z,64.20
2018-11-03T17:19:46.681Z,66.20
2018-11-03T17:22:14.721Z,67.00
2018-11-03T17:24:43.056Z,67.70
2018-11-03T17:27:13.147Z,68.50
2018-11-03T17:29:41.243Z,68.80
2018-11-03T17:34:37.351Z,71.00
2018-11-03T17:42:01.765Z,72.10
2018-11-03T17:46:57.952Z,73.50
2018-11-03T17:54:21.973Z,75.60
2018-11-03T17:56:50.179Z,76.00
2018-11-03T17:59:18.505Z,76.30
2018-11-03T18:01:46.753Z,76.10
2018-11-03T18:04:14.992Z,76.00
2018-11-03T18:06:44.219Z,76.00
2018-11-03T18:09:12.396Z,76.20
2018-11-03T18:14:08.518Z,76.70
2018-11-03T18:19:04.742Z,76.70
2018-11-03T18:21:33.138Z,77.50
2018-11-03T18:24:01.338Z,77.90
2018-11-03T18:26:29.599Z,78.40
2018-11-03T18:28:58.816Z,79.30
2018-11-03T18:31:27.160Z,79.40
2018-11-03T18:33:55.657Z,79.90
2018-11-03T18:36:23.984Z,80.10
2018-11-03T18:38:52.151Z,80.20
2018-11-03T18:41:20.448Z,80.50
2018-11-03T18:48:44.412Z,82.50
2018-11-03T18:51:12.734Z,82.30
2018-11-03T18:53:41.136Z,83.00
2018-11-03T18:56:09.345Z,83.80
2018-11-03T18:58:37.486Z,83.90
2018-11-03T19:01:06.084Z,84.40
2018-11-03T19:06:02.322Z,85.10
2018-11-03T19:08:30.652Z,85.20
2018-11-03T19:10:58.900Z,85.60
2018-11-03T19:13:27.177Z,85.80
2018-11-03T19:15:55.516Z,85.70
2018-11-03T19:18:23.797Z,85.80
2018-11-03T19:20:51.981Z,85.30
2018-11-03T19:23:20.237Z,86.00
2018-11-03T19:25:48.566Z,86.10
2018-11-03T19:30:45.119Z,86.60
2018-11-03T19:33:14.188Z,86.70
2018-11-03T19:35:42.620Z,87.50
2018-11-03T19:38:10.768Z,87.40
2018-11-03T19:40:39.021Z,87.60
2018-11-03T19:43:07.273Z,87.50
2018-11-03T19:45:35.584Z,87.30
2018-11-03T19:48:03.910Z,87.10
2018-11-03T19:52:59.996Z,87.90
2018-11-03T19:55:28.377Z,87.70
2018-11-03T19:57:56.546Z,88.20
2018-11-03T20:00:24.895Z,88.60
2018-11-03T20:02:53.098Z,88.40
2018-11-03T20:05:21.384Z,88.70
2018-11-03T20:07:49.628Z,89.00
2018-11-03T20:12:45.842Z,89.30
2018-11-03T20:15:14.089Z,89.20
2018-11-03T20:22:40.520Z,89.70
2018-11-03T20:25:09.980Z,89.30
2018-11-03T20:27:38.338Z,89.50
2018-11-03T20:30:09.225Z,89.10
2018-11-03T20:32:37.310Z,88.70
2018-11-03T20:35:06.211Z,88.80
2018-11-03T20:37:34.265Z,88.80
2018-11-03T20:44:58.289Z,88.40
2018-11-03T20:47:26.560Z,88.70
2018-11-03T20:49:54.842Z,88.90
2018-11-03T20:52:23.098Z,88.80
2018-11-03T20:54:51.364Z,89.20
2018-11-03T21:02:15.451Z,88.90
2018-11-03T21:04:43.680Z,89.00
2018-11-03T21:07:11.963Z,89.00
2018-11-03T21:09:40.251Z,88.90
2018-11-03T21:14:36.377Z,89.20
2018-11-03T21:17:04.698Z,89.00
2018-11-03T21:19:32.928Z,89.00
2018-11-03T21:31:53.140Z,89.20
2018-11-03T21:34:21.358Z,89.80
2018-11-03T21:39:17.483Z,90.30
2018-11-03T21:41:45.826Z,90.10
2018-11-03T21:44:14.141Z,89.40
2018-11-03T21:49:14.688Z,89.00
2018-11-03T21:51:43.013Z,89.10
2018-11-03T21:54:11.244Z,88.90
2018-11-03T21:56:39.527Z,87.90
2018-11-03T21:59:07.848Z,87.60
2018-11-03T22:04:04.944Z,88.30
2018-11-03T22:06:33.041Z,88.80
2018-11-03T22:09:01.373Z,88.10
2018-11-03T22:11:31.636Z,88.00
2018-11-03T22:16:27.781Z,87.20
2018-11-03T22:18:56.832Z,87.70
2018-11-03T22:23:53.136Z,89.00
2018-11-03T22:26:21.288Z,88.70
2018-11-03T22:31:17.434Z,89.50
2018-11-03T22:33:45.740Z,89.70
2018-11-03T22:36:14.048Z,89.70
2018-11-03T22:38:42.241Z,89.80
2018-11-03T22:41:10.513Z,89.80
2018-11-03T22:43:38.797Z,89.80
2018-11-03T22:48:34.981Z,89.10
2018-11-03T22:51:03.373Z,89.40
2018-11-03T22:53:31.498Z,89.70
2018-11-03T22:58:28.520Z,90.70
2018-11-03T23:00:57.518Z,90.50
2018-11-03T23:03:26.530Z,90.50
2018-11-03T23:05:55.176Z,90.40
2018-11-03T23:08:23.212Z,90.60
2018-11-03T23:10:51.484Z,90.90
2018-11-03T23:13:19.758Z,90.80
2018-11-03T23:15:48.045Z,90.80
2018-11-03T23:18:16.281Z,90.80
2018-11-03T23:20:44.660Z,90.90
2018-11-03T23:23:12.836Z,91.00
2018-11-03T23:25:41.224Z,91.30
2018-11-03T23:28:09.449Z,91.60
2018-11-03T23:30:37.700Z,91.10
2018-11-03T23:33:06.264Z,91.10
2018-11-03T23:35:34.628Z,91.10
2018-11-03T23:40:30.864Z,91.20
2018-11-03T23:42:59.116Z,90.90
2018-11-03T23:47:55.230Z,91.00
2018-11-03T23:50:23.523Z,91.20
2018-11-03T23:52:51.776Z,91.80
2018-11-03T23:55:20.044Z,92.00
2018-11-03T23:57:48.353Z,92.00
